sensor_id;sensor_type;location;lat;lon;timestamp;pressure;altitude;pressure_sealevel;temperature;humidity
16690;BME280;8458;52.220;9.884;2023-01-29T00:01:41;102073.28;;;-0.54;91.14
16690;BME280;8458;52.220;9.884;2023-01-29T00:04:08;102068.16;;;-0.57;91.39
16690;BME280;8458;52.220;9.884;2023-01-29T00:06:34;102071.09;;;-0.50;90.91
16690;BME280;8458;52.220;9.884;2023-01-29T00:09:02;102062.75;;;-0.49;90.85
16690;BME280;8458;52.220;9.884;2023-01-29T00:11:28;102068.06;;;-0.47;91.13
16690;BME280;8458;52.220;9.884;2023-01-29T00:13:56;102056.53;;;-0.41;90.33
16690;BME280;8458;52.220;9.884;2023-01-29T00:16:23;102066.25;;;-0.39;90.42
16690;BME280;8458;52.220;9.884;2023-01-29T00:18:50;102057.22;;;-0.39;90.21
16690;BME280;8458;52.220;9.884;2023-01-29T00:21:18;102068.84;;;-0.37;90.53
16690;BME280;8458;52.220;9.884;2023-01-29T00:23:46;102062.13;;;-0.43;90.54
16690;BME280;8458;52.220;9.884;2023-01-29T00:26:14;102061.97;;;-0.41;90.94
16690;BME280;8458;52.220;9.884;2023-01-29T00:28:41;102048.28;;;-0.49;90.80
16690;BME280;8458;52.220;9.884;2023-01-29T00:31:08;102053.63;;;-0.40;91.05
16690;BME280;8458;52.220;9.884;2023-01-29T00:33:35;102048.56;;;-0.34;90.97
16690;BME280;8458;52.220;9.884;2023-01-29T00:36:03;102050.06;;;-0.40;90.36
16690;BME280;8458;52.220;9.884;2023-01-29T00:38:30;102046.16;;;-0.38;90.81
16690;BME280;8458;52.220;9.884;2023-01-29T00:40:57;102055.41;;;-0.30;91.18
16690;BME280;8458;52.220;9.884;2023-01-29T00:43:42;102050.47;;;-0.27;90.82
16690;BME280;8458;52.220;9.884;2023-01-29T00:46:26;102041.31;;;-0.26;91.00
16690;BME280;8458;52.220;9.884;2023-01-29T00:48:52;102045.50;;;-0.31;91.07
16690;BME280;8458;52.220;9.884;2023-01-29T00:51:19;102043.59;;;-0.39;91.20
16690;BME280;8458;52.220;9.884;2023-01-29T00:53:45;102042.56;;;-0.38;91.25
16690;BME280;8458;52.220;9.884;2023-01-29T00:56:11;102039.69;;;-0.37;91.59
16690;BME280;8458;52.220;9.884;2023-01-29T00:58:38;102043.09;;;-0.34;91.82
16690;BME280;8458;52.220;9.884;2023-01-29T01:01:06;102054.81;;;-0.42;92.22
16690;BME280;8458;52.220;9.884;2023-01-29T01:03:32;102044.53;;;-0.48;92.92
16690;BME280;8458;52.220;9.884;2023-01-29T01:06:03;102045.78;;;-0.43;92.75
16690;BME280;8458;52.220;9.884;2023-01-29T01:08:30;102045.09;;;-0.45;92.70
16690;BME280;8458;52.220;9.884;2023-01-29T01:11:14;102049.66;;;-0.45;93.33
16690;BME280;8458;52.220;9.884;2023-01-29T01:13:41;102057.16;;;-0.47;92.93
16690;BME280;8458;52.220;9.884;2023-01-29T01:16:09;102048.03;;;-0.38;92.88
16690;BME280;8458;52.220;9.884;2023-01-29T01:18:36;102054.44;;;-0.47;92.64
16690;BME280;8458;52.220;9.884;2023-01-29T01:21:03;102043.53;;;-0.47;93.02
16690;BME280;8458;52.220;9.884;2023-01-29T01:23:30;102039.66;;;-0.45;93.31
16690;BME280;8458;52.220;9.884;2023-01-29T01:25:57;102034.50;;;-0.48;92.45
16690;BME280;8458;52.220;9.884;2023-01-29T01:28:24;102031.63;;;-0.46;92.41
16690;BME280;8458;52.220;9.884;2023-01-29T01:30:51;102028.19;;;-0.48;92.15
16690;BME280;8458;52.220;9.884;2023-01-29T01:33:19;102028.50;;;-0.51;92.55
16690;BME280;8458;52.220;9.884;2023-01-29T01:35:46;102026.00;;;-0.45;92.46
16690;BME280;8458;52.220;9.884;2023-01-29T01:38:12;102013.56;;;-0.47;92.83
16690;BME280;8458;52.220;9.884;2023-01-29T01:40:43;102013.56;;;-0.47;92.23
16690;BME280;8458;52.220;9.884;2023-01-29T01:43:10;102014.03;;;-0.52;92.71
16690;BME280;8458;52.220;9.884;2023-01-29T01:45:36;102001.16;;;-0.42;92.77
16690;BME280;8458;52.220;9.884;2023-01-29T01:48:04;101999.75;;;-0.46;92.27
16690;BME280;8458;52.220;9.884;2023-01-29T01:50:38;101995.16;;;-0.45;92.34
16690;BME280;8458;52.220;9.884;2023-01-29T01:53:08;102003.28;;;-0.53;93.17
16690;BME280;8458;52.220;9.884;2023-01-29T01:55:39;102008.09;;;-0.47;92.53
16690;BME280;8458;52.220;9.884;2023-01-29T01:58:10;102015.19;;;-0.55;92.48
16690;BME280;8458;52.220;9.884;2023-01-29T02:00:38;102004.59;;;-0.58;92.65
16690;BME280;8458;52.220;9.884;2023-01-29T02:03:05;101994.09;;;-0.52;92.96
16690;BME280;8458;52.220;9.884;2023-01-29T02:05:52;101998.84;;;-0.55;92.26
16690;BME280;8458;52.220;9.884;2023-01-29T02:08:42;101993.03;;;-0.60;92.90
16690;BME280;8458;52.220;9.884;2023-01-29T02:11:29;102001.88;;;-0.58;92.98
16690;BME280;8458;52.220;9.884;2023-01-29T02:13:56;102004.94;;;-0.61;92.91
16690;BME280;8458;52.220;9.884;2023-01-29T02:16:22;102006.28;;;-0.65;92.48
16690;BME280;8458;52.220;9.884;2023-01-29T02:18:49;102015.50;;;-0.58;92.86
16690;BME280;8458;52.220;9.884;2023-01-29T02:21:32;102017.38;;;-0.58;92.86
16690;BME280;8458;52.220;9.884;2023-01-29T02:24:31;102029.13;;;-0.58;92.47
16690;BME280;8458;52.220;9.884;2023-01-29T02:27:08;102015.03;;;-0.53;91.99
16690;BME280;8458;52.220;9.884;2023-01-29T02:29:46;102015.91;;;-0.52;91.69
16690;BME280;8458;52.220;9.884;2023-01-29T02:32:20;102018.22;;;-0.58;91.26
16690;BME280;8458;52.220;9.884;2023-01-29T02:34:56;102027.34;;;-0.49;91.14
16690;BME280;8458;52.220;9.884;2023-01-29T02:37:51;102034.34;;;-0.46;91.63
16690;BME280;8458;52.220;9.884;2023-01-29T02:40:27;102027.13;;;-0.56;92.10
16690;BME280;8458;52.220;9.884;2023-01-29T02:43:01;102030.22;;;-0.50;92.00
16690;BME280;8458;52.220;9.884;2023-01-29T02:45:33;102038.88;;;-0.55;92.50
16690;BME280;8458;52.220;9.884;2023-01-29T02:48:01;102045.41;;;-0.48;91.91
16690;BME280;8458;52.220;9.884;2023-01-29T02:50:31;102044.31;;;-0.55;92.31
16690;BME280;8458;52.220;9.884;2023-01-29T02:53:07;102046.53;;;-0.59;92.81
16690;BME280;8458;52.220;9.884;2023-01-29T02:55:37;102047.09;;;-0.47;92.56
16690;BME280;8458;52.220;9.884;2023-01-29T02:58:10;102045.94;;;-0.44;92.28
16690;BME280;8458;52.220;9.884;2023-01-29T03:00:42;102047.34;;;-0.40;91.90
16690;BME280;8458;52.220;9.884;2023-01-29T03:03:13;102047.03;;;-0.37;91.89
16690;BME280;8458;52.220;9.884;2023-01-29T03:05:45;102045.63;;;-0.41;92.11
16690;BME280;8458;52.220;9.884;2023-01-29T03:08:21;102045.47;;;-0.40;91.12
16690;BME280;8458;52.220;9.884;2023-01-29T03:10:52;102042.25;;;-0.35;91.99
16690;BME280;8458;52.220;9.884;2023-01-29T03:13:25;102036.13;;;-0.37;91.82
16690;BME280;8458;52.220;9.884;2023-01-29T03:16:01;102034.56;;;-0.40;92.07
16690;BME280;8458;52.220;9.884;2023-01-29T03:18:32;102019.81;;;-0.29;91.70
16690;BME280;8458;52.220;9.884;2023-01-29T03:21:08;102026.97;;;-0.28;92.45
16690;BME280;8458;52.220;9.884;2023-01-29T03:24:09;102012.97;;;-0.33;92.75
16690;BME280;8458;52.220;9.884;2023-01-29T03:26:55;102009.06;;;-0.30;93.01
16690;BME280;8458;52.220;9.884;2023-01-29T03:29:41;102000.72;;;-0.29;92.47
16690;BME280;8458;52.220;9.884;2023-01-29T03:32:29;102000.25;;;-0.24;92.37
16690;BME280;8458;52.220;9.884;2023-01-29T03:34:57;101999.75;;;-0.20;91.66
16690;BME280;8458;52.220;9.884;2023-01-29T03:37:28;102005.72;;;-0.16;91.38
16690;BME280;8458;52.220;9.884;2023-01-29T03:39:59;102014.06;;;-0.17;90.72
16690;BME280;8458;52.220;9.884;2023-01-29T03:42:28;102018.03;;;-0.12;90.20
16690;BME280;8458;52.220;9.884;2023-01-29T03:45:05;102010.66;;;-0.20;90.93
16690;BME280;8458;52.220;9.884;2023-01-29T03:47:42;102011.19;;;-0.16;89.81
16690;BME280;8458;52.220;9.884;2023-01-29T03:50:18;102003.72;;;-0.14;89.99
16690;BME280;8458;52.220;9.884;2023-01-29T03:52:50;102001.16;;;-0.15;90.06
16690;BME280;8458;52.220;9.884;2023-01-29T03:55:24;101994.31;;;-0.20;90.06
16690;BME280;8458;52.220;9.884;2023-01-29T03:57:59;101997.88;;;-0.19;90.27
16690;BME280;8458;52.220;9.884;2023-01-29T04:00:28;101987.47;;;-0.24;90.22
16690;BME280;8458;52.220;9.884;2023-01-29T04:03:03;101986.47;;;-0.14;90.50
16690;BME280;8458;52.220;9.884;2023-01-29T04:05:36;101977.78;;;-0.18;89.90
16690;BME280;8458;52.220;9.884;2023-01-29T04:08:09;101973.00;;;-0.16;89.98
16690;BME280;8458;52.220;9.884;2023-01-29T04:10:38;101967.03;;;-0.20;90.25
16690;BME280;8458;52.220;9.884;2023-01-29T04:13:09;101968.22;;;-0.22;90.04
16690;BME280;8458;52.220;9.884;2023-01-29T04:15:40;101963.81;;;-0.15;90.13
16690;BME280;8458;52.220;9.884;2023-01-29T04:18:10;101958.88;;;-0.11;90.63
16690;BME280;8458;52.220;9.884;2023-01-29T04:20:37;101956.88;;;-0.09;90.87
16690;BME280;8458;52.220;9.884;2023-01-29T04:23:04;101956.88;;;-0.09;90.74
16690;BME280;8458;52.220;9.884;2023-01-29T04:25:45;101950.38;;;-0.08;90.52
16690;BME280;8458;52.220;9.884;2023-01-29T04:28:19;101943.59;;;-0.04;90.68
16690;BME280;8458;52.220;9.884;2023-01-29T04:30:52;101944.41;;;-0.12;90.52
16690;BME280;8458;52.220;9.884;2023-01-29T04:33:29;101937.28;;;-0.05;90.52
16690;BME280;8458;52.220;9.884;2023-01-29T04:36:04;101925.53;;;0.03;90.36
16690;BME280;8458;52.220;9.884;2023-01-29T04:38:44;101925.91;;;0.00;89.90
16690;BME280;8458;52.220;9.884;2023-01-29T04:41:16;101920.94;;;0.04;89.71
16690;BME280;8458;52.220;9.884;2023-01-29T04:43:55;101910.03;;;0.04;90.09
16690;BME280;8458;52.220;9.884;2023-01-29T04:46:28;101913.59;;;0.04;89.89
16690;BME280;8458;52.220;9.884;2023-01-29T04:49:11;101897.25;;;0.04;89.86
16690;BME280;8458;52.220;9.884;2023-01-29T04:51:46;101891.78;;;0.04;89.79
16690;BME280;8458;52.220;9.884;2023-01-29T04:54:21;101886.34;;;0.04;89.54
16690;BME280;8458;52.220;9.884;2023-01-29T04:56:55;101889.72;;;-0.02;89.98
16690;BME280;8458;52.220;9.884;2023-01-29T04:59:29;101890.94;;;0.04;89.22
16690;BME280;8458;52.220;9.884;2023-01-29T05:01:58;101902.84;;;-0.06;89.93
16690;BME280;8458;52.220;9.884;2023-01-29T05:04:28;101900.13;;;0.03;89.79
16690;BME280;8458;52.220;9.884;2023-01-29T05:06:57;101900.31;;;0.01;89.62
16690;BME280;8458;52.220;9.884;2023-01-29T05:09:26;101889.38;;;-0.07;89.34
16690;BME280;8458;52.220;9.884;2023-01-29T05:11:54;101883.91;;;-0.07;90.15
16690;BME280;8458;52.220;9.884;2023-01-29T05:14:21;101899.28;;;-0.06;89.88
16690;BME280;8458;52.220;9.884;2023-01-29T05:16:52;101896.72;;;-0.08;90.08
16690;BME280;8458;52.220;9.884;2023-01-29T05:19:18;101897.25;;;0.04;90.14
16690;BME280;8458;52.220;9.884;2023-01-29T05:21:48;101897.75;;;-0.01;89.47
16690;BME280;8458;52.220;9.884;2023-01-29T05:24:16;101898.97;;;0.05;89.71
16690;BME280;8458;52.220;9.884;2023-01-29T05:26:43;101900.16;;;0.11;89.28
16690;BME280;8458;52.220;9.884;2023-01-29T05:29:29;101902.38;;;0.07;89.31
16690;BME280;8458;52.220;9.884;2023-01-29T05:31:55;101900.66;;;0.06;89.14
16690;BME280;8458;52.220;9.884;2023-01-29T05:34:22;101897.25;;;0.04;89.40
16690;BME280;8458;52.220;9.884;2023-01-29T05:36:50;101890.78;;;0.05;89.03
16690;BME280;8458;52.220;9.884;2023-01-29T05:39:16;101892.13;;;0.01;88.75
16690;BME280;8458;52.220;9.884;2023-01-29T05:41:43;101892.63;;;0.05;88.90
16690;BME280;8458;52.220;9.884;2023-01-29T05:44:09;101892.13;;;0.01;89.20
16690;BME280;8458;52.220;9.884;2023-01-29T05:46:36;101908.16;;;0.04;88.70
16690;BME280;8458;52.220;9.884;2023-01-29T05:49:02;101914.97;;;0.00;88.55
16690;BME280;8458;52.220;9.884;2023-01-29T05:51:29;101920.06;;;0.03;89.33
16690;BME280;8458;52.220;9.884;2023-01-29T05:53:57;101913.94;;;0.01;89.06
16690;BME280;8458;52.220;9.884;2023-01-29T05:56:23;101920.63;;;0.07;88.71
16690;BME280;8458;52.220;9.884;2023-01-29T05:58:50;101919.91;;;0.05;88.99
16690;BME280;8458;52.220;9.884;2023-01-29T06:01:18;101911.38;;;-0.01;89.60
16690;BME280;8458;52.220;9.884;2023-01-29T06:03:46;101921.13;;;0.02;89.34
16690;BME280;8458;52.220;9.884;2023-01-29T06:06:13;101921.13;;;0.02;89.22
16690;BME280;8458;52.220;9.884;2023-01-29T06:08:40;101926.91;;;-0.01;89.20
16690;BME280;8458;52.220;9.884;2023-01-29T06:11:09;101935.25;;;-0.03;88.89
16690;BME280;8458;52.220;9.884;2023-01-29T06:13:36;101935.59;;;0.03;89.35
16690;BME280;8458;52.220;9.884;2023-01-29T06:16:04;101935.44;;;0.04;89.22
16690;BME280;8458;52.220;9.884;2023-01-29T06:18:30;101935.75;;;0.01;88.50
16690;BME280;8458;52.220;9.884;2023-01-29T06:20:59;101926.56;;;0.02;88.90
16690;BME280;8458;52.220;9.884;2023-01-29T06:23:26;101932.88;;;0.11;88.98
16690;BME280;8458;52.220;9.884;2023-01-29T06:25:52;101941.25;;;0.09;88.95
16690;BME280;8458;52.220;9.884;2023-01-29T06:28:20;101926.25;;;0.13;89.03
16690;BME280;8458;52.220;9.884;2023-01-29T06:30:46;101918.41;;;0.10;88.58
16690;BME280;8458;52.220;9.884;2023-01-29T06:33:13;101915.50;;;0.04;88.63
16690;BME280;8458;52.220;9.884;2023-01-29T06:35:39;101915.69;;;0.10;89.05
16690;BME280;8458;52.220;9.884;2023-01-29T06:38:06;101905.25;;;0.06;89.05
16690;BME280;8458;52.220;9.884;2023-01-29T06:40:32;101904.75;;;0.02;89.06
16690;BME280;8458;52.220;9.884;2023-01-29T06:42:59;101913.09;;;0.01;90.17
16690;BME280;8458;52.220;9.884;2023-01-29T06:45:26;101919.72;;;-0.02;89.97
16690;BME280;8458;52.220;9.884;2023-01-29T06:47:53;101920.78;;;0.05;89.30
16690;BME280;8458;52.220;9.884;2023-01-29T06:50:21;101920.75;;;-0.03;89.51
16690;BME280;8458;52.220;9.884;2023-01-29T06:52:47;101925.19;;;-0.02;89.55
16690;BME280;8458;52.220;9.884;2023-01-29T06:55:14;101930.97;;;0.03;89.20
16690;BME280;8458;52.220;9.884;2023-01-29T06:57:40;101918.03;;;-0.03;89.53
16690;BME280;8458;52.220;9.884;2023-01-29T07:00:08;101921.44;;;-0.01;89.52
16690;BME280;8458;52.220;9.884;2023-01-29T07:02:36;101908.81;;;-0.02;90.08
16690;BME280;8458;52.220;9.884;2023-01-29T07:05:03;101924.53;;;0.04;90.17
16690;BME280;8458;52.220;9.884;2023-01-29T07:07:29;101956.22;;;-0.03;89.99
16690;BME280;8458;52.220;9.884;2023-01-29T07:09:56;101946.66;;;0.01;89.75
16690;BME280;8458;52.220;9.884;2023-01-29T07:12:22;101944.63;;;0.03;89.97
16690;BME280;8458;52.220;9.884;2023-01-29T07:14:48;101952.81;;;0.03;89.56
16690;BME280;8458;52.220;9.884;2023-01-29T07:17:15;101956.94;;;0.07;89.23
16690;BME280;8458;52.220;9.884;2023-01-29T07:19:43;101961.69;;;0.05;89.54
16690;BME280;8458;52.220;9.884;2023-01-29T07:22:09;101960.66;;;0.06;89.72
16690;BME280;8458;52.220;9.884;2023-01-29T07:24:35;101947.88;;;-0.02;89.99
16690;BME280;8458;52.220;9.884;2023-01-29T07:27:02;101957.25;;;0.04;89.87
16690;BME280;8458;52.220;9.884;2023-01-29T07:29:28;101957.59;;;0.01;90.21
16690;BME280;8458;52.220;9.884;2023-01-29T07:31:55;101950.06;;;0.03;89.90
16690;BME280;8458;52.220;9.884;2023-01-29T07:34:21;101943.78;;;0.03;89.92
16690;BME280;8458;52.220;9.884;2023-01-29T07:36:51;101934.78;;;0.10;90.28
16690;BME280;8458;52.220;9.884;2023-01-29T07:39:18;101940.72;;;0.06;89.72
16690;BME280;8458;52.220;9.884;2023-01-29T07:41:44;101940.22;;;0.10;90.11
16690;BME280;8458;52.220;9.884;2023-01-29T07:44:11;101919.25;;;0.11;90.27
16690;BME280;8458;52.220;9.884;2023-01-29T07:46:37;101918.06;;;0.13;90.58
16690;BME280;8458;52.220;9.884;2023-01-29T07:49:04;101922.88;;;0.20;90.18
16690;BME280;8458;52.220;9.884;2023-01-29T07:51:30;101922.53;;;0.23;89.88
16690;BME280;8458;52.220;9.884;2023-01-29T07:53:58;101917.41;;;0.20;89.49
16690;BME280;8458;52.220;9.884;2023-01-29T07:56:24;101923.19;;;0.16;89.56
16690;BME280;8458;52.220;9.884;2023-01-29T07:58:51;101913.28;;;0.15;89.69
16690;BME280;8458;52.220;9.884;2023-01-29T08:01:17;101913.63;;;0.12;90.17
16690;BME280;8458;52.220;9.884;2023-01-29T08:03:44;101896.91;;;0.07;90.28
16690;BME280;8458;52.220;9.884;2023-01-29T08:06:10;101888.22;;;0.04;90.17
16690;BME280;8458;52.220;9.884;2023-01-29T08:08:37;101868.78;;;0.07;90.34
16690;BME280;8458;52.220;9.884;2023-01-29T08:11:05;101856.50;;;0.03;90.48
16690;BME280;8458;52.220;9.884;2023-01-29T08:13:32;101864.84;;;0.01;90.34
16690;BME280;8458;52.220;9.884;2023-01-29T08:15:59;101870.31;;;0.01;89.99
16690;BME280;8458;52.220;9.884;2023-01-29T08:18:26;101874.91;;;0.01;90.77
16690;BME280;8458;52.220;9.884;2023-01-29T08:20:58;101870.31;;;0.01;90.55
16690;BME280;8458;52.220;9.884;2023-01-29T08:23:24;101877.31;;;0.04;90.01
16690;BME280;8458;52.220;9.884;2023-01-29T08:25:51;101889.75;;;0.06;90.15
16690;BME280;8458;52.220;9.884;2023-01-29T08:28:19;101881.53;;;-0.02;90.54
16690;BME280;8458;52.220;9.884;2023-01-29T08:30:45;101875.91;;;-0.01;90.57
16690;BME280;8458;52.220;9.884;2023-01-29T08:33:12;101876.09;;;-0.02;90.78
16690;BME280;8458;52.220;9.884;2023-01-29T08:35:38;101874.91;;;0.01;90.28
16690;BME280;8458;52.220;9.884;2023-01-29T08:38:05;101872.34;;;-0.01;91.23
16690;BME280;8458;52.220;9.884;2023-01-29T08:40:33;101874.25;;;0.07;91.06
16690;BME280;8458;52.220;9.884;2023-01-29T08:43:01;101878.66;;;-0.01;91.56
16690;BME280;8458;52.220;9.884;2023-01-29T08:45:29;101876.81;;;0.08;92.09
16690;BME280;8458;52.220;9.884;2023-01-29T08:47:55;101886.00;;;0.07;92.23
16690;BME280;8458;52.220;9.884;2023-01-29T08:50:22;101882.25;;;0.08;92.71
16690;BME280;8458;52.220;9.884;2023-01-29T08:52:48;101877.50;;;0.10;92.23
16690;BME280;8458;52.220;9.884;2023-01-29T08:55:15;101881.94;;;0.11;91.79
16690;BME280;8458;52.220;9.884;2023-01-29T08:57:41;101875.28;;;0.14;91.84
16690;BME280;8458;52.220;9.884;2023-01-29T09:00:09;101881.25;;;0.17;91.97
16690;BME280;8458;52.220;9.884;2023-01-29T09:02:37;101876.16;;;0.14;92.17
16690;BME280;8458;52.220;9.884;2023-01-29T09:05:04;101874.09;;;0.16;92.76
16690;BME280;8458;52.220;9.884;2023-01-29T09:07:30;101881.25;;;0.17;92.95
16690;BME280;8458;52.220;9.884;2023-01-29T09:09:57;101871.72;;;0.22;93.24
16690;BME280;8458;52.220;9.884;2023-01-29T09:12:24;101866.78;;;0.25;93.25
16690;BME280;8458;52.220;9.884;2023-01-29T09:14:50;101858.09;;;0.30;93.25
16690;BME280;8458;52.220;9.884;2023-01-29T09:17:17;101857.75;;;0.33;92.75
16690;BME280;8458;52.220;9.884;2023-01-29T09:19:45;101847.69;;;0.33;92.44
16690;BME280;8458;52.220;9.884;2023-01-29T09:22:11;101853.81;;;0.35;93.04
16690;BME280;8458;52.220;9.884;2023-01-29T09:24:38;101844.47;;;0.38;93.24
16690;BME280;8458;52.220;9.884;2023-01-29T09:27:04;101837.28;;;0.37;92.62
16690;BME280;8458;52.220;9.884;2023-01-29T09:29:31;101829.47;;;0.42;92.86
16690;BME280;8458;52.220;9.884;2023-01-29T09:31:57;101822.28;;;0.33;92.86
16690;BME280;8458;52.220;9.884;2023-01-29T09:34:23;101819.22;;;0.36;93.83
16690;BME280;8458;52.220;9.884;2023-01-29T09:36:52;101820.56;;;0.40;94.00
16690;BME280;8458;52.220;9.884;2023-01-29T09:39:18;101815.66;;;0.44;93.89
16690;BME280;8458;52.220;9.884;2023-01-29T09:41:50;101805.22;;;0.47;93.58
16690;BME280;8458;52.220;9.884;2023-01-29T09:44:23;101812.41;;;0.48;93.06
16690;BME280;8458;52.220;9.884;2023-01-29T09:46:52;101816.16;;;0.47;93.39
16690;BME280;8458;52.220;9.884;2023-01-29T09:49:24;101806.59;;;0.43;93.77
16690;BME280;8458;52.220;9.884;2023-01-29T09:51:57;101804.56;;;0.45;94.03
16690;BME280;8458;52.220;9.884;2023-01-29T09:54:28;101806.41;;;0.45;94.56
16690;BME280;8458;52.220;9.884;2023-01-29T09:56:56;101807.28;;;0.45;94.08
16690;BME280;8458;52.220;9.884;2023-01-29T09:59:26;101807.28;;;0.45;94.29
16690;BME280;8458;52.220;9.884;2023-01-29T10:01:59;101802.66;;;0.46;94.51
16690;BME280;8458;52.220;9.884;2023-01-29T10:04:45;101799.09;;;0.53;94.89
16690;BME280;8458;52.220;9.884;2023-01-29T10:07:29;101804.19;;;0.57;93.65
16690;BME280;8458;52.220;9.884;2023-01-29T10:10:12;101796.00;;;0.57;93.78
16690;BME280;8458;52.220;9.884;2023-01-29T10:12:52;101789.19;;;0.52;93.08
16690;BME280;8458;52.220;9.884;2023-01-29T10:15:33;101787.81;;;0.57;93.71
16690;BME280;8458;52.220;9.884;2023-01-29T10:18:17;101788.66;;;0.57;93.11
16690;BME280;8458;52.220;9.884;2023-01-29T10:20:57;101780.66;;;0.56;92.78
16690;BME280;8458;52.220;9.884;2023-01-29T10:23:32;101783.72;;;0.61;92.71
16690;BME280;8458;52.220;9.884;2023-01-29T10:25:59;101774.50;;;0.62;92.77
16690;BME280;8458;52.220;9.884;2023-01-29T10:28:30;101779.28;;;0.68;92.33
16690;BME280;8458;52.220;9.884;2023-01-29T10:31:03;101783.03;;;0.67;91.94
16690;BME280;8458;52.220;9.884;2023-01-29T10:33:35;101772.44;;;0.72;92.49
16690;BME280;8458;52.220;9.884;2023-01-29T10:36:08;101780.47;;;0.74;92.04
16690;BME280;8458;52.220;9.884;2023-01-29T10:38:43;101776.53;;;0.76;91.33
16690;BME280;8458;52.220;9.884;2023-01-29T10:41:34;101787.47;;;0.76;91.18
16690;BME280;8458;52.220;9.884;2023-01-29T10:44:15;101785.41;;;0.78;91.35
16690;BME280;8458;52.220;9.884;2023-01-29T10:46:56;101796.00;;;0.81;91.32
16690;BME280;8458;52.220;9.884;2023-01-29T10:49:37;101790.53;;;0.81;91.03
16690;BME280;8458;52.220;9.884;2023-01-29T10:52:19;101783.00;;;0.83;91.16
16690;BME280;8458;52.220;9.884;2023-01-29T10:55:00;101777.53;;;0.83;91.11
16690;BME280;8458;52.220;9.884;2023-01-29T10:57:41;101786.09;;;0.88;91.50
16690;BME280;8458;52.220;9.884;2023-01-29T11:00:19;101776.50;;;0.93;91.42
16690;BME280;8458;52.220;9.884;2023-01-29T11:02:48;101772.22;;;0.98;91.43
16690;BME280;8458;52.220;9.884;2023-01-29T11:05:26;101771.22;;;0.99;90.75
16690;BME280;8458;52.220;9.884;2023-01-29T11:08:01;101763.53;;;0.95;90.48
16690;BME280;8458;52.220;9.884;2023-01-29T11:10:31;101752.75;;;1.01;90.76
16690;BME280;8458;52.220;9.884;2023-01-29T11:12:59;101749.13;;;1.09;90.23
16690;BME280;8458;52.220;9.884;2023-01-29T11:15:29;101737.84;;;1.12;90.12
16690;BME280;8458;52.220;9.884;2023-01-29T11:18:04;101741.94;;;1.16;89.46
16690;BME280;8458;52.220;9.884;2023-01-29T11:20:34;101737.00;;;1.12;89.73
16690;BME280;8458;52.220;9.884;2023-01-29T11:23:01;101727.59;;;1.14;89.80
16690;BME280;8458;52.220;9.884;2023-01-29T11:25:29;101718.78;;;1.04;89.85
16690;BME280;8458;52.220;9.884;2023-01-29T11:27:58;101715.00;;;1.05;90.36
16690;BME280;8458;52.220;9.884;2023-01-29T11:30:27;101715.81;;;1.14;90.46
16690;BME280;8458;52.220;9.884;2023-01-29T11:33:09;101706.78;;;1.13;89.45
16690;BME280;8458;52.220;9.884;2023-01-29T11:35:37;101705.72;;;1.22;89.57
16690;BME280;8458;52.220;9.884;2023-01-29T11:38:07;101704.38;;;1.18;89.97
16690;BME280;8458;52.220;9.884;2023-01-29T11:40:38;101698.00;;;1.26;89.64
16690;BME280;8458;52.220;9.884;2023-01-29T11:43:17;101699.53;;;1.29;88.99
16690;BME280;8458;52.220;9.884;2023-01-29T11:45:44;101684.47;;;1.33;88.55
16690;BME280;8458;52.220;9.884;2023-01-29T11:48:14;101688.25;;;1.32;88.43
16690;BME280;8458;52.220;9.884;2023-01-29T11:50:41;101688.25;;;1.32;88.48
16690;BME280;8458;52.220;9.884;2023-01-29T11:53:21;101686.00;;;1.35;88.36
16690;BME280;8458;52.220;9.884;2023-01-29T11:55:50;101682.91;;;1.38;87.96
16690;BME280;8458;52.220;9.884;2023-01-29T11:58:19;101673.66;;;1.39;88.24
16690;BME280;8458;52.220;9.884;2023-01-29T12:00:49;101672.09;;;1.45;87.65
16690;BME280;8458;52.220;9.884;2023-01-29T12:03:21;101664.06;;;1.43;88.00
16690;BME280;8458;52.220;9.884;2023-01-29T12:05:53;101666.81;;;1.43;87.51
16690;BME280;8458;52.220;9.884;2023-01-29T12:08:21;101670.38;;;1.44;87.80
16690;BME280;8458;52.220;9.884;2023-01-29T12:11:06;101659.59;;;1.51;87.96
16690;BME280;8458;52.220;9.884;2023-01-29T12:13:33;101660.63;;;1.50;88.09
16690;BME280;8458;52.220;9.884;2023-01-29T12:16:09;101649.13;;;1.54;88.24
16690;BME280;8458;52.220;9.884;2023-01-29T12:18:40;101643.66;;;1.54;88.00
16690;BME280;8458;52.220;9.884;2023-01-29T12:21:11;101638.88;;;1.56;87.96
16690;BME280;8458;52.220;9.884;2023-01-29T12:23:48;101631.16;;;1.60;88.16
16690;BME280;8458;52.220;9.884;2023-01-29T12:26:24;101644.28;;;1.65;87.83
16690;BME280;8458;52.220;9.884;2023-01-29T12:29:04;101630.25;;;1.68;88.31
16690;BME280;8458;52.220;9.884;2023-01-29T12:31:36;101619.13;;;1.69;88.07
16690;BME280;8458;52.220;9.884;2023-01-29T12:34:11;101615.84;;;1.74;87.96
16690;BME280;8458;52.220;9.884;2023-01-29T12:36:43;101602.19;;;1.74;86.99
16690;BME280;8458;52.220;9.884;2023-01-29T12:39:18;101616.22;;;1.71;86.68
16690;BME280;8458;52.220;9.884;2023-01-29T12:41:50;101615.53;;;1.69;85.97
16690;BME280;8458;52.220;9.884;2023-01-29T12:44:20;101619.97;;;1.70;85.86
16690;BME280;8458;52.220;9.884;2023-01-29T12:46:52;101617.34;;;1.76;86.21
16690;BME280;8458;52.220;9.884;2023-01-29T12:49:22;101614.13;;;1.73;86.18
16690;BME280;8458;52.220;9.884;2023-01-29T12:51:54;101616.59;;;1.68;86.19
16690;BME280;8458;52.220;9.884;2023-01-29T12:54:30;101615.34;;;1.70;86.21
16690;BME280;8458;52.220;9.884;2023-01-29T12:57:01;101613.84;;;1.68;86.09
16690;BME280;8458;52.220;9.884;2023-01-29T12:59:32;101608.66;;;1.73;86.19
16690;BME280;8458;52.220;9.884;2023-01-29T13:02:06;101606.00;;;1.65;86.54
16690;BME280;8458;52.220;9.884;2023-01-29T13:04:43;101601.38;;;1.65;86.60
16690;BME280;8458;52.220;9.884;2023-01-29T13:07:13;101607.31;;;1.69;86.45
16690;BME280;8458;52.220;9.884;2023-01-29T13:09:44;101603.47;;;1.63;85.99
16690;BME280;8458;52.220;9.884;2023-01-29T13:12:15;101597.84;;;1.56;85.86
16690;BME280;8458;52.220;9.884;2023-01-29T13:14:45;101589.28;;;1.59;86.13
16690;BME280;8458;52.220;9.884;2023-01-29T13:17:20;101591.00;;;1.60;86.45
16690;BME280;8458;52.220;9.884;2023-01-29T13:19:51;101591.19;;;1.59;86.96
16690;BME280;8458;52.220;9.884;2023-01-29T13:22:21;101575.97;;;1.56;86.79
16690;BME280;8458;52.220;9.884;2023-01-29T13:24:50;101581.94;;;1.60;86.90
16690;BME280;8458;52.220;9.884;2023-01-29T13:27:23;101572.88;;;1.59;86.94